Time;durP1;ratioP1;P1;durP2;ratioP2;P2;SDS_P1;SDS_P2;PMS_P1;PMS_P2;Temp;Humidity;BMP_temperature;BMP_pressure;BME280_temperature;BME280_humidity;BME280_pressure;Samples;Min_cycle;Max_cycle;Signal;HPM_P1;HPM_P2
2022/04/13 00:00:13;;;;;;;8.40;2.45;;;;;;;10.99;70.62;99523.97;5003730;28;20042;-41
2022/04/13 00:02:40;;;;;;;8.32;2.28;;;;;;;10.97;70.99;99530.88;5006180;28;20057;-43
2022/04/13 00:05:09;;;;;;;8.60;2.83;;;;;;;10.98;70.38;99535.19;5006556;28;20355;-42
2022/04/13 00:07:36;;;;;;;8.05;3.30;;;;;;;10.97;71.08;99532.63;5004945;28;20803;-42
2022/04/13 00:10:04;;;;;;;6.47;2.95;;;;;;;11.00;71.30;99535.16;5002737;28;20053;-41
2022/04/13 00:12:30;;;;;;;8.13;2.88;;;;;;;10.99;70.75;99534.31;5000314;28;20054;-41
2022/04/13 00:14:57;;;;;;;8.45;2.38;;;;;;;10.98;72.24;99536.94;5004169;28;20337;-41
2022/04/13 00:17:24;;;;;;;7.50;2.80;;;;;;;11.02;71.14;99538.59;5005051;28;20053;-41
2022/04/13 00:19:50;;;;;;;8.13;2.85;;;;;;;11.02;70.89;99544.63;5003630;28;20046;-42
2022/04/13 00:22:17;;;;;;;9.35;3.05;;;;;;;11.05;71.11;99548.94;5002707;28;20045;-43
2022/04/13 00:24:43;;;;;;;10.10;3.22;;;;;;;11.09;70.84;99549.75;5002860;28;20050;-43
2022/04/13 00:27:10;;;;;;;11.55;3.05;;;;;;;11.11;71.00;99551.44;5002648;28;20104;-43
2022/04/13 00:29:36;;;;;;;8.88;2.95;;;;;;;11.09;71.65;99547.16;5006111;28;20109;-44
2022/04/13 00:32:03;;;;;;;11.15;3.63;;;;;;;11.12;72.23;99544.53;5002876;28;20050;-44
2022/04/13 00:34:31;;;;;;;8.82;3.60;;;;;;;11.13;71.98;99548.81;5003360;28;20096;-41
2022/04/13 00:36:58;;;;;;;11.75;2.92;;;;;;;11.16;71.54;99551.38;5000077;28;20524;-43
2022/04/13 00:39:26;;;;;;;7.35;2.80;;;;;;;11.18;71.60;99544.47;5001657;28;20109;-42
2022/04/13 00:42:08;;;;;;;7.32;2.60;;;;;;;11.18;71.42;99547.06;5004944;28;20430;-42
2022/04/13 00:44:35;;;;;;;8.43;2.75;;;;;;;11.23;71.35;99555.63;5005691;28;20092;-42
2022/04/13 00:47:06;;;;;;;9.32;3.40;;;;;;;11.21;71.26;99554.75;5005463;28;21140;-42
2022/04/13 00:49:35;;;;;;;8.65;2.75;;;;;;;11.18;71.20;99553.06;5002724;28;20050;-41
2022/04/13 00:52:04;;;;;;;17.15;3.72;;;;;;;11.18;71.08;99554.84;5002242;28;20045;-44
2022/04/13 00:54:33;;;;;;;7.70;2.88;;;;;;;11.17;71.50;99555.69;5003029;28;20060;-40
2022/04/13 00:57:09;;;;;;;8.63;3.00;;;;;;;11.12;71.64;99560.06;5004760;28;20417;-41
2022/04/13 00:59:37;;;;;;;8.80;2.20;;;;;;;11.08;71.66;99564.44;5003723;28;20069;-42
2022/04/13 01:02:07;;;;;;;8.70;2.55;;;;;;;11.04;71.26;99560.16;5001757;28;20050;-41
2022/04/13 01:04:35;;;;;;;13.68;3.53;;;;;;;11.03;71.26;99566.22;5002963;28;20104;-41
2022/04/13 01:07:06;;;;;;;11.10;2.78;;;;;;;11.00;71.89;99567.13;5000440;28;20049;-43
2022/04/13 01:09:34;;;;;;;9.23;3.22;;;;;;;10.99;71.33;99569.75;5004261;28;20054;-42
2022/04/13 01:12:01;;;;;;;7.43;2.95;;;;;;;10.98;71.35;99568.88;5001262;28;20053;-41
2022/04/13 01:14:28;;;;;;;10.13;2.80;;;;;;;10.97;71.47;99567.16;5002407;28;20042;-42
2022/04/13 01:16:55;;;;;;;8.88;2.65;;;;;;;10.95;71.32;99574.13;5002690;28;20046;-40
2022/04/13 01:19:22;;;;;;;11.80;3.40;;;;;;;10.92;71.32;99574.97;5003864;28;20581;-41
2022/04/13 01:21:58;;;;;;;9.00;3.40;;;;;;;10.88;71.95;99583.66;5005215;28;20050;-41
2022/04/13 01:24:25;;;;;;;11.75;3.15;;;;;;;10.86;71.99;99574.19;5005861;28;20052;-42
2022/04/13 01:26:52;;;;;;;7.60;3.00;;;;;;;10.82;72.18;99583.75;5006690;28;20482;-42
2022/04/13 01:29:18;;;;;;;9.65;3.08;;;;;;;10.79;71.68;99587.25;5008442;28;20054;-47
2022/04/13 01:31:45;;;;;;;9.23;3.38;;;;;;;10.77;72.32;99590.69;5003678;28;20100;-44
2022/04/13 01:34:13;;;;;;;9.50;3.08;;;;;;;10.74;71.43;99590.75;5004450;28;20052;-42
2022/04/13 01:36:39;;;;;;;10.93;3.30;;;;;;;10.70;71.75;99592.50;5006167;28;20046;-43
2022/04/13 01:39:07;;;;;;;15.02;3.75;;;;;;;10.67;71.68;99588.22;5006422;28;20054;-43
2022/04/13 01:41:34;;;;;;;8.50;2.75;;;;;;;10.65;71.79;99596.88;5005633;28;20074;-42
2022/04/13 01:44:00;;;;;;;7.63;2.40;;;;;;;10.63;72.02;99601.22;5003513;28;20096;-44
2022/04/13 01:46:27;;;;;;;11.15;3.40;;;;;;;10.61;71.50;99598.63;5003318;28;20370;-42
2022/04/13 01:48:54;;;;;;;8.20;3.20;;;;;;;10.59;71.80;99596.94;5005082;28;20521;-39
2022/04/13 01:51:38;;;;;;;8.30;3.15;;;;;;;10.59;72.27;99591.75;5006448;28;20053;-42
2022/04/13 01:54:04;;;;;;;9.52;3.28;;;;;;;10.57;72.29;99596.94;5006130;28;20050;-43
2022/04/13 01:56:31;;;;;;;12.63;3.90;;;;;;;10.56;72.54;99607.31;5008399;28;20058;-41
2022/04/13 01:58:59;;;;;;;11.45;3.53;;;;;;;10.55;72.37;99601.31;5006492;28;20505;-41
2022/04/13 02:01:27;;;;;;;8.18;2.90;;;;;;;10.53;71.95;99605.63;4990994;28;20046;-41
2022/04/13 02:03:54;;;;;;;12.23;2.97;;;;;;;10.53;71.69;99597.84;4984709;28;20645;-43
2022/04/13 02:06:21;;;;;;;11.20;3.08;;;;;;;10.51;72.50;99605.63;4986100;28;20514;-42
2022/04/13 02:08:48;;;;;;;11.70;3.15;;;;;;;10.51;72.24;99604.78;4986944;28;20046;-40
2022/04/13 02:11:15;;;;;;;10.38;3.33;;;;;;;10.52;72.61;99612.56;4987531;28;20772;-41
2022/04/13 02:13:42;;;;;;;9.13;3.47;;;;;;;10.53;72.26;99608.22;5001863;28;20042;-41
2022/04/13 02:16:08;;;;;;;13.85;3.72;;;;;;;10.54;72.46;99609.94;5006822;28;20112;-41
2022/04/13 02:18:35;;;;;;;7.28;3.80;;;;;;;10.54;72.59;99605.63;5003355;28;20046;-45
2022/04/13 02:21:02;;;;;;;11.38;3.47;;;;;;;10.57;73.02;99603.88;5001397;28;20116;-42
2022/04/13 02:23:29;;;;;;;10.55;3.55;;;;;;;10.59;72.25;99599.53;5002871;28;20426;-42
2022/04/13 02:25:59;;;;;;;8.13;3.58;;;;;;;10.61;72.61;99601.22;5007277;28;20037;-42
2022/04/13 02:28:26;;;;;;;7.55;3.22;;;;;;;10.62;72.90;99592.59;5004386;28;20042;-43
2022/04/13 02:30:52;;;;;;;10.18;4.03;;;;;;;10.60;72.36;99593.50;5005765;28;20050;-42
2022/04/13 02:33:21;;;;;;;9.20;3.47;;;;;;;10.56;73.05;99594.38;5007381;28;20045;-42
2022/04/13 02:35:47;;;;;;;10.93;3.42;;;;;;;10.52;73.23;99598.75;5006513;28;20112;-43
2022/04/13 02:38:15;;;;;;;8.75;3.03;;;;;;;10.48;73.03;99600.50;5006381;28;20054;-41
2022/04/13 02:40:43;;;;;;;12.07;3.17;;;;;;;10.47;72.96;99605.69;5007174;28;20304;-43
2022/04/13 02:43:10;;;;;;;6.32;2.78;;;;;;;10.46;72.87;99611.72;5002543;28;20092;-39
2022/04/13 02:45:37;;;;;;;8.85;2.80;;;;;;;10.47;72.85;99608.28;5004683;28;20050;-41
2022/04/13 02:48:04;;;;;;;6.80;2.70;;;;;;;10.50;72.88;99609.09;5005150;28;20082;-42
2022/04/13 02:50:31;;;;;;;10.15;3.05;;;;;;;10.53;72.63;99619.44;5007236;28;20042;-43
2022/04/13 02:52:57;;;;;;;10.68;3.88;;;;;;;10.56;72.23;99617.69;5003500;28;20061;-42
2022/04/13 02:55:25;;;;;;;8.82;3.25;;;;;;;10.58;72.77;99626.31;5005197;28;20150;-42
2022/04/13 02:57:52;;;;;;;10.10;4.00;;;;;;;10.60;73.42;99624.56;5005677;28;20050;-43
2022/04/13 03:00:18;;;;;;;12.35;3.63;;;;;;;10.62;72.91;99620.22;5001078;28;20105;-43
2022/04/13 03:02:45;;;;;;;9.07;3.63;;;;;;;10.62;72.50;99617.63;5003312;28;20060;-44
2022/04/13 03:05:12;;;;;;;8.52;3.35;;;;;;;10.64;73.07;99621.06;5008043;28;20093;-44
2022/04/13 03:07:39;;;;;;;11.88;3.58;;;;;;;10.64;72.58;99621.91;5004049;28;20136;-43
2022/04/13 03:10:06;;;;;;;12.77;3.35;;;;;;;10.66;72.67;99624.50;5001896;28;20080;-42
2022/04/13 03:12:34;;;;;;;9.00;3.25;;;;;;;10.68;72.70;99627.94;5000838;28;20046;-43
2022/04/13 03:15:07;;;;;;;13.07;3.97;;;;;;;10.69;73.35;99624.47;5007439;28;20053;-42
2022/04/13 03:17:34;;;;;;;16.15;4.13;;;;;;;10.71;73.23;99622.72;5006441;28;20053;-43
2022/04/13 03:20:00;;;;;;;10.23;3.30;;;;;;;10.73;72.90;99623.56;5008111;28;20049;-40
2022/04/13 03:22:27;;;;;;;11.77;3.78;;;;;;;10.74;72.93;99629.63;5005992;28;20050;-41
2022/04/13 03:24:54;;;;;;;10.88;4.18;;;;;;;10.75;73.22;99624.41;5002811;28;20045;-40
2022/04/13 03:27:21;;;;;;;10.85;4.25;;;;;;;10.76;73.09;99620.94;5002977;28;20046;-42
2022/04/13 03:29:47;;;;;;;8.50;3.65;;;;;;;10.79;72.72;99617.47;5001037;28;20084;-41
2022/04/13 03:32:14;;;;;;;10.55;4.22;;;;;;;10.78;72.34;99619.19;5005784;28;20053;-41
2022/04/13 03:34:41;;;;;;;8.70;3.95;;;;;;;10.78;73.66;99623.53;5003965;28;20541;-44
2022/04/13 03:37:07;;;;;;;11.93;4.18;;;;;;;10.76;72.92;99620.94;5004877;28;20061;-41
2022/04/13 03:39:34;;;;;;;12.88;4.18;;;;;;;10.76;73.56;99620.94;5003406;28;20049;-42
2022/04/13 03:42:00;;;;;;;10.95;4.35;;;;;;;10.74;73.77;99617.50;5001848;28;20057;-39
2022/04/13 03:44:27;;;;;;;12.65;4.47;;;;;;;10.71;73.25;99620.13;4998783;28;20054;-39
2022/04/13 03:46:53;;;;;;;14.40;3.80;;;;;;;10.72;73.09;99624.44;5001439;28;20061;-41
2022/04/13 03:49:20;;;;;;;12.70;4.30;;;;;;;10.71;73.07;99627.03;5002887;28;20046;-44
2022/04/13 03:51:47;;;;;;;13.30;4.38;;;;;;;10.70;73.01;99631.34;5002987;28;20057;-42
2022/04/13 03:54:14;;;;;;;11.45;4.20;;;;;;;10.70;72.79;99631.34;5007272;28;20042;-42
2022/04/13 03:56:40;;;;;;;12.48;4.90;;;;;;;10.71;72.73;99633.06;5003120;28;20041;-40
2022/04/13 03:59:07;;;;;;;15.38;4.43;;;;;;;10.69;73.77;99629.66;5004253;28;20104;-41
2022/04/13 04:01:34;;;;;;;10.73;3.92;;;;;;;10.70;73.00;99626.19;5004904;28;20108;-41
2022/04/13 04:04:02;;;;;;;10.85;3.92;;;;;;;10.71;72.94;99625.28;5006834;28;20046;-41
2022/04/13 04:06:28;;;;;;;12.68;4.53;;;;;;;10.71;73.41;99621.88;5003170;28;20045;-43
2022/04/13 04:08:55;;;;;;;9.20;4.00;;;;;;;10.69;73.48;99624.47;5007594;28;20105;-42
2022/04/13 04:11:22;;;;;;;12.48;4.05;;;;;;;10.68;73.12;99630.53;5003857;28;20716;-41
2022/04/13 04:13:48;;;;;;;11.55;4.20;;;;;;;10.67;73.51;99632.25;5002840;28;20045;-41
2022/04/13 04:16:16;;;;;;;9.43;3.83;;;;;;;10.65;74.07;99638.31;5002633;28;20532;-44
2022/04/13 04:18:43;;;;;;;10.75;3.70;;;;;;;10.63;74.14;99635.75;5006326;28;20088;-42
2022/04/13 04:21:09;;;;;;;8.25;3.53;;;;;;;10.62;73.72;99638.34;5001815;28;20103;-41
2022/04/13 04:23:36;;;;;;;9.32;4.07;;;;;;;10.61;73.74;99642.66;5005880;28;20054;-42
2022/04/13 04:26:03;;;;;;;15.13;4.28;;;;;;;10.62;73.42;99646.13;4982920;28;20097;-41
2022/04/13 04:28:29;;;;;;;10.23;3.63;;;;;;;10.65;73.85;99643.50;4983160;28;20101;-42
2022/04/13 04:30:56;;;;;;;8.98;3.35;;;;;;;10.65;74.37;99644.38;4985134;28;20186;-41
2022/04/13 04:33:24;;;;;;;11.85;4.72;;;;;;;10.66;73.72;99640.03;4985726;28;20756;-41
2022/04/13 04:35:51;;;;;;;11.90;3.92;;;;;;;10.67;73.23;99636.56;4982704;28;20117;-42
2022/04/13 04:38:19;;;;;;;9.85;3.92;;;;;;;10.67;73.58;99641.75;4982796;28;20142;-39
2022/04/13 04:40:46;;;;;;;10.57;4.25;;;;;;;10.67;72.83;99652.09;4984048;28;20595;-40
2022/04/13 04:43:12;;;;;;;11.32;3.25;;;;;;;10.64;73.94;99642.63;4982786;28;20047;-40
2022/04/13 04:45:39;;;;;;;15.10;3.72;;;;;;;10.60;73.83;99651.31;4993883;28;20107;-42
2022/04/13 04:48:06;;;;;;;15.30;4.35;;;;;;;10.59;73.36;99657.38;5005080;28;20058;-43
2022/04/13 04:50:34;;;;;;;11.85;4.63;;;;;;;10.59;73.54;99654.78;5002486;28;20057;-45
2022/04/13 04:53:01;;;;;;;13.77;4.45;;;;;;;10.61;74.30;99657.34;5002986;28;20070;-41
2022/04/13 04:55:28;;;;;;;14.45;4.50;;;;;;;10.65;73.60;99653.88;5006724;28;20058;-41
2022/04/13 04:57:55;;;;;;;9.00;3.55;;;;;;;10.68;74.22;99664.19;5005364;28;20050;-43
2022/04/13 05:00:22;;;;;;;12.95;3.65;;;;;;;10.71;73.56;99658.97;5005102;28;20050;-40
2022/04/13 05:02:50;;;;;;;12.45;3.97;;;;;;;10.71;74.18;99661.56;5006976;28;20103;-41
2022/04/13 05:05:18;;;;;;;9.55;4.10;;;;;;;10.73;73.92;99665.00;5006409;28;20046;-43
2022/04/13 05:07:46;;;;;;;9.18;3.42;;;;;;;10.74;73.74;99674.50;5004617;28;20049;-43
2022/04/13 05:10:12;;;;;;;10.30;3.95;;;;;;;10.74;74.01;99673.66;5008115;28;20046;-43
2022/04/13 05:15:19;;;;;;;11.52;4.20;;;;;;;10.78;73.29;99689.13;5044592;27;20408;-43
2022/04/13 05:17:45;;;;;;;13.25;3.60;;;;;;;10.78;73.29;99696.91;4996949;28;20050;-43
2022/04/13 05:20:12;;;;;;;11.68;3.65;;;;;;;10.80;73.44;99700.34;4988218;28;20054;-42
2022/04/13 05:22:39;;;;;;;11.98;3.55;;;;;;;10.79;73.58;99698.63;4982855;28;20047;-42
2022/04/13 05:25:08;;;;;;;12.05;3.80;;;;;;;10.82;73.50;99708.09;4981872;28;20105;-40
2022/04/13 05:27:35;;;;;;;11.52;3.58;;;;;;;10.80;73.48;99712.44;4984204;28;20047;-43
2022/04/13 05:30:05;;;;;;;9.15;3.70;;;;;;;10.83;74.19;99703.75;4984087;28;20051;-40
2022/04/13 05:32:32;;;;;;;11.52;3.58;;;;;;;10.83;73.52;99714.13;4985831;28;20051;-41
2022/04/13 05:35:01;;;;;;;13.25;3.25;;;;;;;10.85;73.24;99722.75;4985859;28;20093;-41
2022/04/13 05:37:29;;;;;;;11.15;3.70;;;;;;;10.85;73.13;99727.94;4984051;28;20059;-43
2022/04/13 05:39:55;;;;;;;8.75;3.85;;;;;;;10.86;73.52;99724.47;4983938;28;20046;-41
2022/04/13 05:42:24;;;;;;;9.85;3.95;;;;;;;10.89;73.79;99725.31;4985263;28;20046;-43
2022/04/13 05:44:51;;;;;;;10.50;3.75;;;;;;;10.91;73.18;99738.25;4986304;28;20059;-41
2022/04/13 05:47:18;;;;;;;10.55;3.35;;;;;;;10.95;74.05;99737.34;4985906;28;20085;-40
2022/04/13 05:49:45;;;;;;;11.73;4.30;;;;;;;10.99;73.77;99744.22;4981481;28;20054;-42
2022/04/13 05:52:12;;;;;;;11.32;4.25;;;;;;;11.04;73.31;99755.41;4984319;28;20475;-41
2022/04/13 05:54:38;;;;;;;10.73;4.28;;;;;;;11.07;73.53;99743.31;4984907;28;20051;-41
2022/04/13 05:57:05;;;;;;;14.55;4.72;;;;;;;11.12;72.82;99741.50;4986408;28;20046;-41
2022/04/13 05:59:32;;;;;;;11.52;4.40;;;;;;;11.11;73.92;99752.75;4978418;28;20471;-41
2022/04/13 06:01:58;;;;;;;13.77;4.68;;;;;;;11.11;73.65;99756.19;4985726;28;20050;-44
2022/04/13 06:04:25;;;;;;;13.43;3.95;;;;;;;11.11;73.74;99756.19;4984870;28;20125;-44
2022/04/13 06:06:54;;;;;;;9.63;3.60;;;;;;;11.13;73.77;99761.38;4983016;28;20104;-41
2022/04/13 06:09:22;;;;;;;12.32;4.20;;;;;;;11.15;73.71;99767.41;4985886;28;20080;-43
2022/04/13 06:11:49;;;;;;;10.25;4.00;;;;;;;11.17;73.09;99765.66;4979815;28;20101;-41
2022/04/13 06:14:16;;;;;;;10.98;4.03;;;;;;;11.19;73.65;99769.09;4978906;28;20434;-40
2022/04/13 06:16:43;;;;;;;10.82;3.88;;;;;;;11.20;72.75;99783.75;4982912;28;20502;-42
2022/04/13 06:19:28;;;;;;;9.65;3.55;;;;;;;11.23;72.41;99791.53;4982007;28;20050;-44
2022/04/13 06:21:54;;;;;;;11.40;4.13;;;;;;;11.25;72.83;99788.91;4980371;28;20054;-40
2022/04/13 06:24:21;;;;;;;10.15;3.40;;;;;;;11.24;72.27;99788.03;4983251;28;20523;-41
2022/04/13 06:26:47;;;;;;;13.23;3.67;;;;;;;11.24;72.41;99792.34;4966434;28;20490;-41
2022/04/13 06:29:14;;;;;;;10.93;4.07;;;;;;;11.27;73.16;99797.53;4971054;28;20058;-42
2022/04/13 06:31:40;;;;;;;16.63;4.43;;;;;;;11.28;73.12;99807.88;4970589;28;20109;-41
2022/04/13 06:34:07;;;;;;;10.10;3.92;;;;;;;11.28;73.26;99805.28;4970301;28;20042;-42
2022/04/13 06:36:34;;;;;;;10.70;4.70;;;;;;;11.29;72.61;99812.19;4969013;28;20431;-41
2022/04/13 06:39:00;;;;;;;10.68;3.70;;;;;;;11.30;72.07;99813.91;4970263;28;20038;-41
2022/04/13 06:41:27;;;;;;;12.25;4.03;;;;;;;11.33;72.22;99813.03;4969925;28;20046;-42
2022/04/13 06:43:55;;;;;;;12.65;4.18;;;;;;;11.34;73.40;99813.91;4968620;28;20101;-43
2022/04/13 06:46:21;;;;;;;13.15;3.97;;;;;;;11.37;73.04;99816.44;4967710;28;20047;-42
2022/04/13 06:48:48;;;;;;;11.65;4.00;;;;;;;11.39;72.92;99820.72;4967703;28;20054;-41
2022/04/13 06:51:15;;;;;;;7.95;3.90;;;;;;;11.43;72.32;99827.63;4968888;28;20054;-43
2022/04/13 06:53:41;;;;;;;11.15;4.30;;;;;;;11.52;73.05;99839.63;4968409;28;20109;-40
2022/04/13 06:56:08;;;;;;;12.25;3.85;;;;;;;11.59;73.32;99834.38;4967548;28;20574;-41
2022/04/13 06:58:35;;;;;;;9.65;3.92;;;;;;;11.67;73.16;99827.38;4968014;28;20069;-41
2022/04/13 07:01:01;;;;;;;13.85;4.10;;;;;;;11.75;73.08;99838.53;4965911;28;20094;-42
2022/04/13 07:03:28;;;;;;;10.43;4.55;;;;;;;11.90;72.95;99839.25;4968593;28;20101;-43
2022/04/13 07:05:55;;;;;;;10.32;3.75;;;;;;;11.95;72.87;99847.81;4967460;28;20050;-41
2022/04/13 07:08:22;;;;;;;10.35;4.05;;;;;;;11.98;72.13;99852.09;4966562;28;20051;-44
2022/04/13 07:10:49;;;;;;;15.02;4.45;;;;;;;12.05;72.25;99854.63;4966521;28;20070;-43
2022/04/13 07:13:16;;;;;;;10.45;4.28;;;;;;;12.18;72.06;99864.91;4965280;28;20051;-40
2022/04/13 07:15:43;;;;;;;8.75;3.95;;;;;;;12.42;71.69;99862.84;4964131;28;20046;-42
2022/04/13 07:18:10;;;;;;;10.02;4.05;;;;;;;12.73;71.81;99865.91;4963901;28;20062;-44
2022/04/13 07:20:36;;;;;;;12.52;3.90;;;;;;;12.91;71.46;99865.66;4965541;28;20063;-41
2022/04/13 07:23:03;;;;;;;10.40;4.72;;;;;;;12.95;70.05;99867.31;4959607;28;20907;-42
2022/04/13 07:25:31;;;;;;;8.93;3.35;;;;;;;12.94;70.95;99873.41;4962505;28;20074;-41
2022/04/13 07:27:58;;;;;;;7.20;3.58;;;;;;;12.95;70.24;99873.38;4962889;28;20771;-43
2022/04/13 07:30:24;;;;;;;9.48;3.80;;;;;;;12.96;70.42;99880.28;4964751;28;20467;-42
2022/04/13 07:32:53;;;;;;;5.97;3.78;;;;;;;12.98;69.88;99873.31;4966074;28;20113;-44
2022/04/13 07:35:20;;;;;;;7.13;3.63;;;;;;;13.02;70.52;99879.34;4966302;28;20145;-41
2022/04/13 07:37:47;;;;;;;9.38;3.90;;;;;;;13.08;70.77;99879.22;4966731;28;20051;-41
2022/04/13 07:40:14;;;;;;;8.18;3.08;;;;;;;13.13;70.93;99886.94;4967513;28;21380;-41
2022/04/13 07:42:41;;;;;;;10.77;3.22;;;;;;;13.20;70.15;99888.56;4967802;28;20043;-41
2022/04/13 07:45:09;;;;;;;8.15;3.40;;;;;;;13.27;70.89;99889.31;4965611;28;20490;-42
2022/04/13 07:47:36;;;;;;;7.10;3.13;;;;;;;13.28;70.58;99895.41;4965574;28;20065;-43
2022/04/13 07:50:03;;;;;;;6.68;3.50;;;;;;;13.34;69.45;99897.91;4963158;28;20801;-41
2022/04/13 07:52:35;;;;;;;10.75;2.72;;;;;;;13.33;69.36;99904.84;4965627;28;20047;-45
2022/04/13 07:55:02;;;;;;;10.75;3.42;;;;;;;13.36;70.15;99903.94;4977191;28;20750;-42
2022/04/13 07:57:29;;;;;;;9.63;3.00;;;;;;;13.34;68.97;99905.72;4969786;28;20042;-43
2022/04/13 07:59:56;;;;;;;7.50;3.10;;;;;;;13.31;69.49;99905.75;4972400;28;20428;-43
2022/04/13 08:02:22;;;;;;;6.63;2.92;;;;;;;13.33;69.73;99915.25;4970681;28;20055;-41
2022/04/13 08:04:49;;;;;;;7.45;3.22;;;;;;;13.37;69.73;99916.91;4973451;28;20038;-44
2022/04/13 08:07:16;;;;;;;10.68;4.65;;;;;;;13.42;69.19;99918.59;4968956;28;20694;-41
2022/04/13 08:09:43;;;;;;;7.25;3.38;;;;;;;13.46;69.39;99912.44;4963755;28;20058;-41
2022/04/13 08:12:10;;;;;;;7.72;3.33;;;;;;;13.47;69.33;99919.34;4964171;28;20062;-45
2022/04/13 08:14:37;;;;;;;9.40;3.17;;;;;;;13.53;68.89;99919.28;4962508;28;20054;-42
2022/04/13 08:17:05;;;;;;;10.10;2.90;;;;;;;13.60;69.13;99920.91;4966357;28;20498;-44
2022/04/13 08:19:32;;;;;;;8.30;4.07;;;;;;;13.72;68.39;99918.97;4965811;28;20717;-42
2022/04/13 08:21:58;;;;;;;6.45;2.38;;;;;;;13.82;68.63;99917.91;4963302;28;20227;-41
2022/04/13 08:24:25;;;;;;;8.02;2.45;;;;;;;13.91;68.16;99929.06;4967640;28;20043;-41
2022/04/13 08:26:51;;;;;;;11.30;2.85;;;;;;;13.94;68.59;99931.56;4964772;28;20066;-42
2022/04/13 08:29:19;;;;;;;8.85;3.08;;;;;;;14.00;68.25;99931.47;4968491;28;20636;-42
2022/04/13 08:31:46;;;;;;;9.82;3.00;;;;;;;14.11;68.16;99934.75;4961079;28;20055;-42
2022/04/13 08:34:12;;;;;;;9.82;2.88;;;;;;;14.19;67.34;99941.56;4946915;28;20046;-43
2022/04/13 08:36:39;;;;;;;11.27;4.90;;;;;;;14.27;67.63;99950.94;4957457;28;20055;-42
2022/04/13 08:39:13;;;;;;;6.45;2.40;;;;;;;14.35;67.57;99953.38;4956533;28;20121;-42
2022/04/13 08:42:06;;;;;;;8.50;3.47;;;;;;;14.43;66.89;99954.97;4958922;28;20043;-44
2022/04/13 08:44:52;;;;;;;6.68;2.47;;;;;;;14.53;66.80;99956.50;4959987;28;20109;-50
2022/04/13 08:47:21;;;;;;;11.50;3.58;;;;;;;14.67;66.74;99960.56;4967977;28;20109;-47
2022/04/13 08:49:50;;;;;;;6.40;2.75;;;;;;;14.77;66.33;99964.72;4964885;28;20047;-44
2022/04/13 08:52:20;;;;;;;8.68;2.83;;;;;;;14.80;65.82;99963.81;4965717;28;20047;-47
2022/04/13 08:57:28;;;;;;;5.45;1.95;;;;;;;14.97;65.68;99976.47;5032195;28;21230;-44
2022/04/13 09:03:12;;;;;;;7.57;3.47;;;;;;;15.13;64.84;99977.84;5056299;28;21079;-42
2022/04/13 09:05:49;;;;;;;7.82;4.05;;;;;;;15.26;65.42;99982.75;5034986;28;20042;-45
2022/04/13 09:08:21;;;;;;;11.82;4.20;;;;;;;15.37;64.97;99991.19;5020759;28;20107;-47
2022/04/13 09:10:50;;;;;;;10.18;4.28;;;;;;;15.48;64.68;99987.47;5053747;28;20439;-44
2022/04/13 09:13:20;;;;;;;15.82;6.20;;;;;;;15.90;64.48;99989.06;5058940;28;20041;-44
2022/04/13 09:15:47;;;;;;;7.43;4.88;;;;;;;16.33;64.24;99997.53;5041722;28;21403;-45
2022/04/13 09:18:15;;;;;;;10.85;4.90;;;;;;;16.65;63.76;99998.38;5076574;28;20484;-43
2022/04/13 09:20:42;;;;;;;10.20;5.30;;;;;;;16.78;62.67;99988.41;5056254;28;20045;-48
2022/04/13 09:23:09;;;;;;;9.48;4.25;;;;;;;16.77;61.17;100001.53;5059155;28;20053;-45
2022/04/13 09:25:37;;;;;;;6.07;4.22;;;;;;;16.73;61.11;99994.69;5051623;28;20049;-45
2022/04/13 09:28:04;;;;;;;8.38;4.85;;;;;;;16.73;61.09;100000.78;5048956;28;20045;-44
2022/04/13 09:30:33;;;;;;;10.48;4.65;;;;;;;16.75;60.34;100004.19;5059126;28;20098;-42
2022/04/13 09:33:02;;;;;;;9.13;4.85;;;;;;;16.85;61.62;100015.25;5057459;28;20064;-46
2022/04/13 09:35:31;;;;;;;10.10;3.90;;;;;;;16.98;61.38;100009.66;5058543;28;20053;-44
2022/04/13 09:38:01;;;;;;;7.20;5.20;;;;;;;17.07;60.64;100009.41;5056067;28;20090;-46
2022/04/13 09:43:15;;;;;;;7.65;2.70;;;;;;;17.16;60.15;100003.88;5034832;27;20410;-44
2022/04/13 09:45:45;;;;;;;7.30;2.97;;;;;;;17.12;59.92;100012.72;5013097;28;20046;-43
2022/04/13 09:48:13;;;;;;;6.88;3.22;;;;;;;17.08;59.46;100019.84;5009780;28;20050;-44
2022/04/13 09:50:43;;;;;;;5.18;2.20;;;;;;;16.87;59.65;100017.81;5010095;28;20538;-44
2022/04/13 09:53:12;;;;;;;9.73;2.60;;;;;;;16.64;59.63;100021.94;5015869;28;20054;-44
2022/04/13 09:55:41;;;;;;;9.60;2.92;;;;;;;16.54;60.09;100026.59;5011265;28;20050;-43
2022/04/13 09:58:13;;;;;;;7.38;2.90;;;;;;;16.35;59.96;100021.84;5010497;28;20535;-42
2022/04/13 10:00:41;;;;;;;10.95;4.35;;;;;;;16.28;60.56;100030.78;5004516;28;20061;-44
2022/04/13 10:05:49;;;;;;;7.85;2.83;;;;;;;16.07;61.26;100040.88;5064168;27;20436;-43
2022/04/13 10:08:22;;;;;;;11.15;2.30;;;;;;;15.95;61.76;100042.06;5025382;28;20746;-41
2022/04/13 10:10:52;;;;;;;8.68;3.25;;;;;;;15.88;61.57;100043.09;5023835;28;20050;-41
2022/04/13 10:13:40;;;;;;;7.47;4.55;;;;;;;15.74;62.01;100052.09;5022554;28;20476;-42
2022/04/13 10:16:09;;;;;;;5.82;2.40;;;;;;;15.71;62.28;100046.97;5018561;28;20048;-42
2022/04/13 10:18:57;;;;;;;5.55;2.50;;;;;;;15.69;62.30;100053.97;5022978;28;20057;-42
2022/04/13 10:21:48;;;;;;;10.70;2.67;;;;;;;15.75;62.69;100052.97;5010995;28;20104;-43
2022/04/13 10:27:16;;;;;;;9.32;5.13;;;;;;;15.80;62.58;100053.72;5051564;27;20404;-46
2022/04/13 10:29:45;;;;;;;8.85;3.95;;;;;;;15.97;62.21;100052.50;5014301;28;20096;-44
2022/04/13 10:32:15;;;;;;;8.38;3.75;;;;;;;16.13;62.50;100058.16;5005259;28;20543;-46
2022/04/13 10:34:45;;;;;;;6.35;3.42;;;;;;;16.32;62.48;100053.31;5012060;28;20045;-43
2022/04/13 10:37:14;;;;;;;8.40;4.13;;;;;;;16.51;61.85;100058.06;5007436;28;20050;-53
2022/04/13 10:39:41;;;;;;;9.10;3.53;;;;;;;16.64;61.52;100054.19;5040417;28;20096;-45
2022/04/13 10:42:10;;;;;;;7.70;4.43;;;;;;;16.70;60.76;100059.28;5007951;28;20103;-44
2022/04/13 10:44:41;;;;;;;5.43;3.88;;;;;;;16.73;61.63;100057.44;5008612;28;20057;-46
2022/04/13 10:47:10;;;;;;;7.40;3.78;;;;;;;16.65;61.64;100063.75;5014102;28;20769;-42
2022/04/13 10:52:27;;;;;;;4.72;1.98;;;;;;;16.35;62.10;100068.06;5035930;27;20411;-44
2022/04/13 10:55:03;;;;;;;6.28;2.30;;;;;;;16.34;62.68;100067.19;5021447;28;20042;-43
2022/04/13 10:57:36;;;;;;;5.88;2.40;;;;;;;16.51;63.04;100068.53;5024908;28;20057;-44
2022/04/13 11:00:06;;;;;;;7.53;2.50;;;;;;;16.76;63.34;100062.59;5020303;28;20077;-44
2022/04/13 11:02:54;;;;;;;4.22;2.00;;;;;;;17.04;64.66;100061.78;5021458;28;20082;-44
2022/04/13 11:05:22;;;;;;;4.70;1.95;;;;;;;17.41;63.11;100054.63;5021897;28;20088;-44
2022/04/13 11:08:13;;;;;;;4.30;2.50;;;;;;;17.77;62.73;100067.47;5056540;28;20100;-42
2022/04/13 11:10:42;;;;;;;5.45;1.83;;;;;;;17.95;61.77;100066.00;5021551;28;20038;-44
2022/04/13 11:13:09;;;;;;;3.13;1.85;;;;;;;18.05;60.88;100070.91;5025684;28;20104;-42
2022/04/13 11:15:38;;;;;;;6.88;2.53;;;;;;;18.22;60.94;100073.88;5016591;28;20100;-42
2022/04/13 11:18:17;;;;;;;12.98;4.38;;;;;;;18.36;61.29;100064.66;5020722;28;20551;-44
2022/04/13 11:23:53;;;;;;;21.40;5.30;;;;;;;18.55;58.30;100069.25;5022728;28;20907;-45
2022/04/13 11:29:21;;;;;;;23.33;6.10;;;;;;;18.62;57.57;100071.59;5045898;28;20404;-43
2022/04/13 17:33:19;;;;;;;2.72;1.10;;;;;;;15.32;65.19;100337.50;5033027;28;20399;-41
2022/04/13 17:35:47;;;;;;;2.80;1.02;;;;;;;15.27;65.12;100329.75;4990750;28;20054;-43
2022/04/13 17:38:14;;;;;;;2.35;1.58;;;;;;;15.24;64.91;100342.00;4990986;28;20058;-43
2022/04/13 17:40:40;;;;;;;2.67;1.00;;;;;;;15.19;65.25;100338.63;4987013;28;20449;-41
2022/04/13 17:43:07;;;;;;;2.83;1.20;;;;;;;15.11;65.11;100339.63;4982553;28;20054;-42
2022/04/13 17:45:34;;;;;;;2.00;1.05;;;;;;;15.07;64.85;100332.75;4991669;28;20046;-40
2022/04/13 17:48:00;;;;;;;1.73;0.93;;;;;;;15.03;65.11;100334.53;4990017;28;20522;-42
2022/04/13 17:50:27;;;;;;;4.15;0.88;;;;;;;14.99;64.74;100335.47;4995463;28;20046;-42
2022/04/13 17:52:54;;;;;;;2.08;0.85;;;;;;;14.93;64.88;100335.53;4986420;28;20046;-41
2022/04/13 17:55:21;;;;;;;3.20;1.17;;;;;;;14.90;65.27;100341.69;4986360;28;20050;-42
2022/04/13 17:57:48;;;;;;;3.13;0.95;;;;;;;14.87;65.03;100344.38;4989969;28;20054;-43